GAP2604 RPLK-RPUT
Flight info
| Callsign | GAP2604 |
|---|---|
| Flight time | 1h 2m |
| Altitude | 32000 |
| Route | BIK W15 MIA A461 CAB N884 CUY CUY1R |
| Aircraft | A20N/M-SDE2E3FGHIRWXY/LB1 |
Departure
| Time | 2026-04-26 08:24 |
|---|---|
| Airport | Bicol International Airport (RPLK) |
Arrival
| Time | 2026-04-26 09:26 |
|---|---|
| Airport | Tuguegarao Airport (RPUT) |
| Time | Latitude | Longitude | Altitude | Speed | Heading |
|---|---|---|---|---|---|
| 2026-04-26 07:56 | 13.11238 | 123.68103 | 327 ft | 0 kts | 137° |
| 2026-04-26 08:11 | 13.11243 | 123.68098 | 327 ft | 2 kts | 143° |
| 2026-04-26 08:12 | 13.11254 | 123.68089 | 327 ft | 2 kts | 135° |
| 2026-04-26 08:12 | 13.11265 | 123.68078 | 327 ft | 2 kts | 138° |
| 2026-04-26 08:12 | 13.11276 | 123.68067 | 327 ft | 2 kts | 137° |
| 2026-04-26 08:12 | 13.11288 | 123.68057 | 328 ft | 2 kts | 137° |
| 2026-04-26 08:13 | 13.11301 | 123.68050 | 328 ft | 2 kts | 178° |
| 2026-04-26 08:13 | 13.11316 | 123.68053 | 327 ft | 2 kts | 216° |
| 2026-04-26 08:13 | 13.11321 | 123.68058 | 328 ft | 1 kts | 232° |
| 2026-04-26 08:13 | 13.11323 | 123.68061 | 328 ft | 0 kts | 227° |
| 2026-04-26 08:17 | 13.11322 | 123.68060 | 327 ft | 0 kts | 227° |
| 2026-04-26 08:17 | 13.11316 | 123.68053 | 327 ft | 2 kts | 227° |
| 2026-04-26 08:18 | 13.11298 | 123.68034 | 327 ft | 4 kts | 225° |
| 2026-04-26 08:18 | 13.11273 | 123.68009 | 327 ft | 5 kts | 225° |
| 2026-04-26 08:18 | 13.11243 | 123.67976 | 327 ft | 6 kts | 235° |
| 2026-04-26 08:18 | 13.11241 | 123.67926 | 327 ft | 7 kts | 302° |
| 2026-04-26 08:19 | 13.11285 | 123.67886 | 327 ft | 9 kts | 319° |
| 2026-04-26 08:19 | 13.11319 | 123.67832 | 327 ft | 9 kts | 265° |
| 2026-04-26 08:19 | 13.11276 | 123.67773 | 327 ft | 10 kts | 226° |
| 2026-04-26 08:19 | 13.11221 | 123.67714 | 327 ft | 11 kts | 226° |
| 2026-04-26 08:20 | 13.11162 | 123.67649 | 327 ft | 12 kts | 227° |
| 2026-04-26 08:20 | 13.11099 | 123.67579 | 327 ft | 13 kts | 227° |
| 2026-04-26 08:20 | 13.11033 | 123.67506 | 327 ft | 14 kts | 227° |
| 2026-04-26 08:20 | 13.10964 | 123.67430 | 327 ft | 14 kts | 227° |
| 2026-04-26 08:21 | 13.10892 | 123.67351 | 327 ft | 15 kts | 227° |
| 2026-04-26 08:21 | 13.10817 | 123.67268 | 327 ft | 15 kts | 227° |
| 2026-04-26 08:21 | 13.10741 | 123.67184 | 327 ft | 16 kts | 227° |
| 2026-04-26 08:21 | 13.10664 | 123.67101 | 327 ft | 15 kts | 220° |
| 2026-04-26 08:22 | 13.10585 | 123.67062 | 327 ft | 4 kts | 201° |
| 2026-04-26 08:22 | 13.10577 | 123.67039 | 327 ft | 4 kts | 303° |
| 2026-04-26 08:22 | 13.10610 | 123.67039 | 327 ft | 6 kts | 39° |
| 2026-04-26 08:22 | 13.10638 | 123.67069 | 327 ft | 6 kts | 47° |
| 2026-04-26 08:23 | 13.10673 | 123.67108 | 327 ft | 11 kts | 48° |
| 2026-04-26 08:23 | 13.10882 | 123.67339 | 327 ft | 79 kts | 47° |
| 2026-04-26 08:23 | 13.11403 | 123.67915 | 328 ft | 138 kts | 48° |
| 2026-04-26 08:23 | 13.12112 | 123.68697 | 687 ft | 151 kts | 49° |
| 2026-04-26 08:24 | 13.12828 | 123.69477 | 1192 ft | 153 kts | 48° |
| 2026-04-26 08:24 | 13.13579 | 123.70283 | 1674 ft | 159 kts | 47° |
| 2026-04-26 08:24 | 13.14354 | 123.71103 | 2198 ft | 161 kts | 48° |
| 2026-04-26 08:24 | 13.15157 | 123.71976 | 2500 ft | 173 kts | 48° |
| 2026-04-26 08:25 | 13.15992 | 123.72950 | 2774 ft | 189 kts | 57° |
| 2026-04-26 08:25 | 13.16591 | 123.74194 | 3077 ft | 203 kts | 70° |
| 2026-04-26 08:25 | 13.16778 | 123.75693 | 3301 ft | 224 kts | 104° |
| 2026-04-26 08:25 | 13.15918 | 123.77057 | 3682 ft | 242 kts | 142° |
| 2026-04-26 08:26 | 13.14309 | 123.77644 | 4149 ft | 259 kts | 178° |
| 2026-04-26 08:26 | 13.12530 | 123.77141 | 4602 ft | 277 kts | 213° |
| 2026-04-26 08:26 | 13.11265 | 123.75606 | 5162 ft | 287 kts | 249° |
| 2026-04-26 08:26 | 13.11037 | 123.73599 | 5850 ft | 287 kts | 279° |
| 2026-04-26 08:27 | 13.11351 | 123.71572 | 6457 ft | 293 kts | 277° |
| 2026-04-26 08:27 | 13.11442 | 123.69466 | 7073 ft | 297 kts | 271° |
| 2026-04-26 08:27 | 13.11664 | 123.67363 | 7741 ft | 300 kts | 287° |
| 2026-04-26 08:27 | 13.12515 | 123.65450 | 8405 ft | 300 kts | 301° |
| 2026-04-26 08:28 | 13.13598 | 123.63605 | 9006 ft | 304 kts | 302° |
| 2026-04-26 08:28 | 13.14706 | 123.61731 | 9608 ft | 307 kts | 301° |
| 2026-04-26 08:28 | 13.15804 | 123.59851 | 10202 ft | 310 kts | 301° |
| 2026-04-26 08:28 | 13.16920 | 123.57917 | 10580 ft | 321 kts | 301° |
| 2026-04-26 08:29 | 13.18079 | 123.55891 | 10842 ft | 336 kts | 300° |
| 2026-04-26 08:29 | 13.19295 | 123.53753 | 11108 ft | 350 kts | 300° |
| 2026-04-26 08:29 | 13.20523 | 123.51589 | 11531 ft | 357 kts | 300° |
| 2026-04-26 08:29 | 13.21776 | 123.49376 | 12113 ft | 359 kts | 300° |
| 2026-04-26 08:30 | 13.23041 | 123.47139 | 12714 ft | 361 kts | 300° |
| 2026-04-26 08:30 | 13.24303 | 123.44906 | 13261 ft | 361 kts | 300° |
| 2026-04-26 08:30 | 13.25559 | 123.42684 | 13774 ft | 365 kts | 300° |
| 2026-04-26 08:30 | 13.26843 | 123.40412 | 14317 ft | 367 kts | 300° |
| 2026-04-26 08:31 | 13.28128 | 123.38138 | 14875 ft | 369 kts | 300° |
| 2026-04-26 08:31 | 13.29426 | 123.35842 | 15404 ft | 370 kts | 300° |
| 2026-04-26 08:31 | 13.30713 | 123.33561 | 15900 ft | 372 kts | 299° |
| 2026-04-26 08:31 | 13.32023 | 123.31225 | 16407 ft | 374 kts | 299° |
| 2026-04-26 08:32 | 13.33328 | 123.28904 | 16901 ft | 376 kts | 299° |
| 2026-04-26 08:32 | 13.34662 | 123.26535 | 17394 ft | 378 kts | 300° |
| 2026-04-26 08:32 | 13.35967 | 123.24219 | 17864 ft | 379 kts | 300° |
| 2026-04-26 08:32 | 13.37299 | 123.21854 | 18311 ft | 380 kts | 300° |
| 2026-04-26 08:33 | 13.38622 | 123.19508 | 18745 ft | 382 kts | 300° |
| 2026-04-26 08:33 | 13.39977 | 123.17107 | 19196 ft | 384 kts | 300° |
| 2026-04-26 08:33 | 13.41330 | 123.14710 | 19624 ft | 385 kts | 300° |
| 2026-04-26 08:33 | 13.42670 | 123.12336 | 20005 ft | 388 kts | 300° |
| 2026-04-26 08:34 | 13.44035 | 123.09915 | 20405 ft | 391 kts | 300° |
| 2026-04-26 08:34 | 13.45406 | 123.07483 | 20809 ft | 393 kts | 299° |
| 2026-04-26 08:34 | 13.46796 | 123.05015 | 21213 ft | 396 kts | 299° |
| 2026-04-26 08:34 | 13.48167 | 123.02578 | 21603 ft | 398 kts | 299° |
| 2026-04-26 08:35 | 13.49561 | 123.00101 | 21993 ft | 400 kts | 299° |
| 2026-04-26 08:35 | 13.50964 | 122.97605 | 22379 ft | 403 kts | 299° |
| 2026-04-26 08:35 | 13.52362 | 122.95120 | 22758 ft | 405 kts | 299° |
| 2026-04-26 08:35 | 13.53784 | 122.92591 | 23138 ft | 407 kts | 299° |
| 2026-04-26 08:36 | 13.55211 | 122.90053 | 23515 ft | 409 kts | 299° |
| 2026-04-26 08:36 | 13.56644 | 122.87502 | 23896 ft | 411 kts | 299° |
| 2026-04-26 08:36 | 13.58072 | 122.84962 | 24270 ft | 414 kts | 298° |
| 2026-04-26 08:36 | 13.59528 | 122.82371 | 24644 ft | 415 kts | 298° |
| 2026-04-26 08:37 | 13.60988 | 122.79769 | 25006 ft | 418 kts | 298° |
| 2026-04-26 08:37 | 13.62453 | 122.77157 | 25366 ft | 420 kts | 298° |
| 2026-04-26 08:37 | 13.63926 | 122.74532 | 25721 ft | 422 kts | 298° |
| 2026-04-26 08:37 | 13.65388 | 122.71925 | 26066 ft | 424 kts | 298° |
| 2026-04-26 08:38 | 13.66863 | 122.69295 | 26409 ft | 426 kts | 298° |
| 2026-04-26 08:38 | 13.68363 | 122.66621 | 26741 ft | 428 kts | 298° |
| 2026-04-26 08:38 | 13.69853 | 122.63963 | 27061 ft | 430 kts | 298° |
| 2026-04-26 08:38 | 13.71357 | 122.61279 | 27385 ft | 432 kts | 298° |
| 2026-04-26 08:39 | 13.72857 | 122.58577 | 27703 ft | 434 kts | 296° |
| 2026-04-26 08:39 | 13.74272 | 122.55818 | 28020 ft | 435 kts | 295° |
| 2026-04-26 08:39 | 13.75669 | 122.53038 | 28338 ft | 437 kts | 295° |
| 2026-04-26 08:39 | 13.77060 | 122.50262 | 28646 ft | 438 kts | 295° |
| 2026-04-26 08:40 | 13.78467 | 122.47456 | 29020 ft | 438 kts | 295° |
| 2026-04-26 08:40 | 13.79871 | 122.44658 | 29437 ft | 436 kts | 295° |
| 2026-04-26 08:40 | 13.81258 | 122.41893 | 29834 ft | 435 kts | 295° |
| 2026-04-26 08:40 | 13.82653 | 122.39115 | 30205 ft | 434 kts | 295° |
| 2026-04-26 08:41 | 13.84030 | 122.36370 | 30526 ft | 435 kts | 295° |
| 2026-04-26 08:41 | 13.85438 | 122.33561 | 30847 ft | 436 kts | 294° |
| 2026-04-26 08:41 | 13.86824 | 122.30787 | 31174 ft | 437 kts | 294° |
| 2026-04-26 08:41 | 13.88222 | 122.27992 | 31515 ft | 438 kts | 294° |
| 2026-04-26 08:42 | 13.89630 | 122.25183 | 31824 ft | 439 kts | 294° |
| 2026-04-26 08:42 | 13.91019 | 122.22410 | 31895 ft | 439 kts | 294° |
| 2026-04-26 08:42 | 13.93828 | 122.16793 | 31947 ft | 437 kts | 294° |
| 2026-04-26 08:43 | 13.96623 | 122.11197 | 31883 ft | 436 kts | 294° |
| 2026-04-26 08:43 | 13.99399 | 122.05647 | 31822 ft | 436 kts | 294° |
| 2026-04-26 08:44 | 14.02169 | 122.00113 | 31813 ft | 436 kts | 294° |
| 2026-04-26 08:44 | 14.04950 | 121.94546 | 31820 ft | 436 kts | 294° |
| 2026-04-26 08:45 | 14.07730 | 121.88959 | 31836 ft | 436 kts | 294° |
| 2026-04-26 08:45 | 14.10510 | 121.83370 | 31851 ft | 436 kts | 294° |
| 2026-04-26 08:46 | 14.13306 | 121.77811 | 31860 ft | 436 kts | 294° |
| 2026-04-26 08:46 | 14.16118 | 121.72195 | 31865 ft | 436 kts | 294° |
| 2026-04-26 08:47 | 14.18884 | 121.66644 | 31867 ft | 436 kts | 294° |
| 2026-04-26 08:47 | 14.21902 | 121.61192 | 31862 ft | 439 kts | 304° |
| 2026-04-26 08:48 | 14.26298 | 121.56709 | 31859 ft | 446 kts | 320° |
| 2026-04-26 08:48 | 14.31792 | 121.53618 | 31863 ft | 452 kts | 333° |
| 2026-04-26 08:49 | 14.37637 | 121.51072 | 31867 ft | 452 kts | 334° |
| 2026-04-26 08:49 | 14.43807 | 121.49487 | 31866 ft | 459 kts | 352° |
| 2026-04-26 08:50 | 14.50322 | 121.49742 | 31872 ft | 464 kts | 3° |
| 2026-04-26 08:50 | 14.56809 | 121.50443 | 31877 ft | 464 kts | 3° |
| 2026-04-26 08:51 | 14.66511 | 121.51471 | 31887 ft | 463 kts | 3° |
| 2026-04-26 08:52 | 14.72956 | 121.52134 | 31893 ft | 463 kts | 3° |
| 2026-04-26 08:52 | 14.79452 | 121.52798 | 31896 ft | 463 kts | 3° |
| 2026-04-26 08:53 | 14.85946 | 121.53460 | 31897 ft | 463 kts | 3° |
| 2026-04-26 08:53 | 14.92445 | 121.54124 | 31896 ft | 463 kts | 3° |
| 2026-04-26 08:54 | 14.98906 | 121.54784 | 31896 ft | 462 kts | 3° |
| 2026-04-26 08:54 | 15.05315 | 121.55438 | 31891 ft | 462 kts | 2° |
| 2026-04-26 08:55 | 15.11784 | 121.56097 | 31879 ft | 462 kts | 2° |
| 2026-04-26 08:55 | 15.18202 | 121.56750 | 31866 ft | 462 kts | 2° |
| 2026-04-26 08:56 | 15.24630 | 121.57407 | 31856 ft | 462 kts | 2° |
| 2026-04-26 08:56 | 15.31181 | 121.58073 | 31847 ft | 477 kts | 2° |
| 2026-04-26 08:57 | 15.37881 | 121.58757 | 31842 ft | 486 kts | 2° |
| 2026-04-26 08:57 | 15.44694 | 121.59457 | 31847 ft | 487 kts | 2° |
| 2026-04-26 08:58 | 15.51449 | 121.60151 | 31857 ft | 487 kts | 2° |
| 2026-04-26 08:58 | 15.58218 | 121.60847 | 31865 ft | 487 kts | 2° |
| 2026-04-26 08:59 | 15.64978 | 121.61542 | 31867 ft | 487 kts | 2° |
| 2026-04-26 08:59 | 15.71753 | 121.62237 | 31867 ft | 487 kts | 3° |
| 2026-04-26 09:00 | 15.78536 | 121.62940 | 31871 ft | 487 kts | 3° |
| 2026-04-26 09:00 | 15.85292 | 121.63638 | 31888 ft | 487 kts | 3° |
| 2026-04-26 09:01 | 15.92088 | 121.64339 | 31911 ft | 487 kts | 2° |
| 2026-04-26 09:01 | 15.98877 | 121.65038 | 31936 ft | 487 kts | 2° |
| 2026-04-26 09:02 | 16.05666 | 121.65738 | 31950 ft | 486 kts | 2° |
| 2026-04-26 09:02 | 16.09011 | 121.66086 | 31923 ft | 471 kts | 2° |
| 2026-04-26 09:02 | 16.12261 | 121.66425 | 31714 ft | 463 kts | 2° |
| 2026-04-26 09:02 | 16.15501 | 121.66760 | 31510 ft | 460 kts | 2° |
| 2026-04-26 09:03 | 16.18708 | 121.67089 | 31287 ft | 457 kts | 2° |
| 2026-04-26 09:03 | 16.21859 | 121.67413 | 31036 ft | 455 kts | 2° |
| 2026-04-26 09:03 | 16.25041 | 121.67741 | 30755 ft | 453 kts | 2° |
| 2026-04-26 09:03 | 16.28195 | 121.68066 | 30363 ft | 452 kts | 2° |
| 2026-04-26 09:04 | 16.31330 | 121.68389 | 29859 ft | 452 kts | 2° |
| 2026-04-26 09:04 | 16.34502 | 121.68717 | 29256 ft | 453 kts | 2° |
| 2026-04-26 09:04 | 16.37619 | 121.69039 | 28611 ft | 453 kts | 2° |
| 2026-04-26 09:04 | 16.40788 | 121.69367 | 28108 ft | 450 kts | 2° |
| 2026-04-26 09:05 | 16.43909 | 121.69692 | 27607 ft | 446 kts | 2° |
| 2026-04-26 09:05 | 16.46966 | 121.70010 | 27093 ft | 441 kts | 2° |
| 2026-04-26 09:05 | 16.50059 | 121.70331 | 26580 ft | 437 kts | 2° |
| 2026-04-26 09:05 | 16.53060 | 121.70643 | 26090 ft | 432 kts | 2° |
| 2026-04-26 09:06 | 16.56064 | 121.70954 | 25609 ft | 428 kts | 2° |
| 2026-04-26 09:06 | 16.59034 | 121.71263 | 25140 ft | 423 kts | 2° |
| 2026-04-26 09:06 | 16.61959 | 121.71568 | 24672 ft | 419 kts | 2° |
| 2026-04-26 09:06 | 16.64846 | 121.71870 | 24204 ft | 416 kts | 2° |
| 2026-04-26 09:07 | 16.67752 | 121.72173 | 23730 ft | 412 kts | 2° |
| 2026-04-26 09:07 | 16.70604 | 121.72469 | 23264 ft | 409 kts | 2° |
| 2026-04-26 09:07 | 16.73423 | 121.72762 | 22796 ft | 406 kts | 2° |
| 2026-04-26 09:07 | 16.76254 | 121.73055 | 22322 ft | 403 kts | 2° |
| 2026-04-26 09:08 | 16.79049 | 121.73346 | 21852 ft | 400 kts | 2° |
| 2026-04-26 09:08 | 16.81856 | 121.73637 | 21380 ft | 398 kts | 2° |
| 2026-04-26 09:08 | 16.84623 | 121.73924 | 20909 ft | 394 kts | 2° |
| 2026-04-26 09:08 | 16.87347 | 121.74210 | 20446 ft | 392 kts | 2° |
| 2026-04-26 09:09 | 16.90061 | 121.74494 | 19986 ft | 389 kts | 2° |
| 2026-04-26 09:09 | 16.92781 | 121.74777 | 19529 ft | 387 kts | 2° |
| 2026-04-26 09:09 | 16.95462 | 121.75076 | 19073 ft | 385 kts | 3° |
| 2026-04-26 09:09 | 16.98098 | 121.75393 | 18625 ft | 382 kts | 4° |
| 2026-04-26 09:10 | 17.00755 | 121.75716 | 18175 ft | 378 kts | 4° |
| 2026-04-26 09:10 | 17.03373 | 121.76033 | 17732 ft | 374 kts | 4° |
| 2026-04-26 09:10 | 17.05940 | 121.76344 | 17294 ft | 371 kts | 4° |
| 2026-04-26 09:10 | 17.08516 | 121.76655 | 16855 ft | 369 kts | 4° |
| 2026-04-26 09:11 | 17.11092 | 121.76965 | 16414 ft | 367 kts | 4° |
| 2026-04-26 09:11 | 17.13648 | 121.77273 | 15976 ft | 365 kts | 4° |
| 2026-04-26 09:11 | 17.16176 | 121.77576 | 15540 ft | 363 kts | 4° |
| 2026-04-26 09:11 | 17.18718 | 121.77882 | 15100 ft | 361 kts | 4° |
| 2026-04-26 09:12 | 17.21203 | 121.78097 | 14627 ft | 358 kts | 355° |
| 2026-04-26 09:12 | 17.23624 | 121.77545 | 14139 ft | 351 kts | 334° |
| 2026-04-26 09:12 | 17.25673 | 121.76231 | 13709 ft | 345 kts | 321° |
| 2026-04-26 09:12 | 17.27605 | 121.74690 | 13277 ft | 343 kts | 321° |
| 2026-04-26 09:13 | 17.29480 | 121.73189 | 12852 ft | 341 kts | 321° |
| 2026-04-26 09:13 | 17.31375 | 121.71679 | 12426 ft | 338 kts | 321° |
| 2026-04-26 09:13 | 17.33239 | 121.70202 | 12019 ft | 335 kts | 321° |
| 2026-04-26 09:13 | 17.35113 | 121.68722 | 11607 ft | 333 kts | 321° |
| 2026-04-26 09:14 | 17.36960 | 121.67265 | 11197 ft | 331 kts | 322° |
| 2026-04-26 09:14 | 17.38811 | 121.65806 | 10783 ft | 330 kts | 322° |
| 2026-04-26 09:14 | 17.40644 | 121.64361 | 10369 ft | 328 kts | 322° |
| 2026-04-26 09:14 | 17.42458 | 121.62953 | 10203 ft | 316 kts | 326° |
| 2026-04-26 09:15 | 17.44376 | 121.61922 | 10111 ft | 303 kts | 339° |
| 2026-04-26 09:15 | 17.46384 | 121.61334 | 10037 ft | 290 kts | 346° |
| 2026-04-26 09:15 | 17.48369 | 121.60889 | 9777 ft | 287 kts | 347° |
| 2026-04-26 09:15 | 17.50326 | 121.60465 | 9449 ft | 285 kts | 347° |
| 2026-04-26 09:16 | 17.52269 | 121.60038 | 9126 ft | 282 kts | 347° |
| 2026-04-26 09:16 | 17.54192 | 121.59609 | 8810 ft | 280 kts | 347° |
| 2026-04-26 09:16 | 17.56098 | 121.59177 | 8498 ft | 278 kts | 347° |
| 2026-04-26 09:16 | 17.57986 | 121.58749 | 8186 ft | 277 kts | 347° |
| 2026-04-26 09:17 | 17.59899 | 121.58314 | 7869 ft | 275 kts | 347° |
| 2026-04-26 09:17 | 17.61773 | 121.57886 | 7557 ft | 274 kts | 347° |
| 2026-04-26 09:17 | 17.63633 | 121.57464 | 7249 ft | 272 kts | 347° |
| 2026-04-26 09:17 | 17.65485 | 121.57043 | 6941 ft | 269 kts | 347° |
| 2026-04-26 09:18 | 17.67317 | 121.56659 | 6638 ft | 267 kts | 351° |
| 2026-04-26 09:18 | 17.69166 | 121.56378 | 6339 ft | 265 kts | 352° |
| 2026-04-26 09:18 | 17.71016 | 121.56113 | 6038 ft | 264 kts | 352° |
| 2026-04-26 09:18 | 17.72837 | 121.55856 | 5741 ft | 262 kts | 352° |
| 2026-04-26 09:19 | 17.74640 | 121.55595 | 5445 ft | 261 kts | 352° |
| 2026-04-26 09:19 | 17.76458 | 121.55333 | 5148 ft | 260 kts | 352° |
| 2026-04-26 09:19 | 17.78255 | 121.55119 | 4838 ft | 259 kts | 0° |
| 2026-04-26 09:19 | 17.79993 | 121.55599 | 4512 ft | 259 kts | 32° |
| 2026-04-26 09:20 | 17.81261 | 121.56903 | 4216 ft | 257 kts | 60° |
| 2026-04-26 09:20 | 17.81817 | 121.58687 | 3936 ft | 254 kts | 83° |
| 2026-04-26 09:20 | 17.82032 | 121.60521 | 3658 ft | 252 kts | 84° |
| 2026-04-26 09:20 | 17.82243 | 121.62359 | 3378 ft | 252 kts | 84° |
| 2026-04-26 09:21 | 17.82462 | 121.64156 | 3112 ft | 251 kts | 83° |
| 2026-04-26 09:21 | 17.82697 | 121.65993 | 2843 ft | 249 kts | 83° |
| 2026-04-26 09:21 | 17.82925 | 121.67736 | 2805 ft | 236 kts | 84° |
| 2026-04-26 09:21 | 17.82895 | 121.69413 | 2703 ft | 223 kts | 112° |
| 2026-04-26 09:22 | 17.81971 | 121.70631 | 2635 ft | 209 kts | 149° |
| 2026-04-26 09:22 | 17.80635 | 121.71108 | 2635 ft | 195 kts | 169° |
| 2026-04-26 09:22 | 17.79329 | 121.71261 | 2630 ft | 180 kts | 173° |
| 2026-04-26 09:22 | 17.78130 | 121.71377 | 2567 ft | 164 kts | 172° |
| 2026-04-26 09:23 | 17.77009 | 121.71510 | 2376 ft | 156 kts | 171° |
| 2026-04-26 09:23 | 17.75972 | 121.71654 | 2174 ft | 143 kts | 170° |
| 2026-04-26 09:23 | 17.74995 | 121.71795 | 1971 ft | 138 kts | 170° |
| 2026-04-26 09:23 | 17.74038 | 121.71935 | 1789 ft | 138 kts | 170° |
| 2026-04-26 09:24 | 17.73085 | 121.72070 | 1611 ft | 137 kts | 170° |
| 2026-04-26 09:24 | 17.72132 | 121.72205 | 1425 ft | 137 kts | 171° |
| 2026-04-26 09:24 | 17.71176 | 121.72342 | 1240 ft | 136 kts | 170° |
| 2026-04-26 09:24 | 17.70236 | 121.72476 | 1060 ft | 136 kts | 170° |
| 2026-04-26 09:25 | 17.69294 | 121.72613 | 874 ft | 136 kts | 172° |
| 2026-04-26 09:25 | 17.68343 | 121.72684 | 571 ft | 134 kts | 171° |
| 2026-04-26 09:25 | 17.67422 | 121.72847 | 458 ft | 134 kts | 169° |
| 2026-04-26 09:25 | 17.66487 | 121.72995 | 307 ft | 134 kts | 169° |
| 2026-04-26 09:26 | 17.65559 | 121.73133 | 152 ft | 133 kts | 170° |
| 2026-04-26 09:26 | 17.64681 | 121.73263 | 88 ft | 103 kts | 171° |
| 2026-04-26 09:26 | 17.64260 | 121.73325 | 90 ft | 18 kts | 172° |
| 2026-04-26 09:26 | 17.64215 | 121.73332 | 90 ft | 3 kts | 172° |
| 2026-04-26 09:27 | 17.64199 | 121.73341 | 90 ft | 2 kts | 120° |
| 2026-04-26 09:27 | 17.64199 | 121.73366 | 90 ft | 4 kts | 68° |
| 2026-04-26 09:27 | 17.64218 | 121.73388 | 90 ft | 4 kts | 41° |
| 2026-04-26 09:27 | 17.64242 | 121.73408 | 91 ft | 4 kts | 37° |
| 2026-04-26 09:28 | 17.64268 | 121.73413 | 91 ft | 3 kts | 354° |
| 2026-04-26 09:28 | 17.64285 | 121.73428 | 91 ft | 4 kts | 79° |
| 2026-04-26 09:28 | 17.64288 | 121.73456 | 91 ft | 3 kts | 83° |
| 2026-04-26 09:28 | 17.64289 | 121.73468 | 91 ft | 0 kts | 83° |